Clear Creek, West Virginia
Current Conditions -  °F | °C
As of 1:51 AM on Sunday 26 Oct 2014 (Local Time) from KBKW Reporting Station
Clear Clear  
Wind Chill: 58°   Ceiling: Unl
Heat Index: 58°   Visibility: 10mi
Dew Point: 52°   Wind: 14mph
Humidity: 81%   Direction: 280°W
Pressure: 29.91"   Gusts: 24mph
Location:  37.92°N, 81.34°W
Report Text: KBKW 260551Z AUTO 28012G21KT 10SM CLR 14/11 A2991 RMK AO2 SLP112 T01440111 10144 20122 58009 TSNO
Loading
Personal Weather Stations






























Interactive Weather Map
Tropical Storm Tracking
New forecast layout! Learn more

10-Day Weather Forecast

Advertisements
Track Severe Weather on mobile